Latest Weather Observations for Cape Byron

IDN60801

Issued at 6:35 pm EST Wednesday 20 August 2014 (issued every 30 minutes, with the page automatically refreshed every 10 minutes)

About weather observations | Map of weather stations | Latest weather observations for NSW | Other Formats
Station Details ID: 058216 Name: CAPE BYRON AWS Lat: -28.64 Lon: 153.64 Height: 95.0 m
Data from the previous 72 hours. | See also: Recent months at Cape Byron
Date/Time
EST
Temp
°C
App
Temp
°C
Dew
Point
Rel
Hum
%
Delta-T
°C
Wind Press
QNH
hPa
Press
MSL
hPa
Rain
since 9 am
mm
Dir
 
Spd
km/h
Gust
km/h
Spd
kts
Gust
kts
20/06:30pm 16.0 6.2 13.3 84 1.5 S 57 69 31 37 1021.1 - 0.4
20/06:00pm 16.0 8.3 13.3 84 1.5 SSW 46 57 25 31 1021.0 1020.9 0.0
20/05:30pm 17.3 7.6 11.8 70 3.0 SSW 54 65 29 35 1020.5 - 0.0
20/05:00pm 17.3 8.0 11.8 70 3.0 SSW 52 65 28 35 1020.3 1020.1 0.0
20/04:30pm 17.4 8.7 11.4 68 3.3 S 48 59 26 32 1020.2 - 0.0
20/04:00pm 17.4 8.8 11.7 69 3.1 SSW 48 57 26 31 1020.0 1019.8 0.0
20/03:30pm 17.4 8.9 11.9 70 3.0 SSW 48 59 26 32 1019.5 - 0.0
20/03:00pm 17.4 9.1 11.4 68 3.3 SSW 46 59 25 32 1019.3 1019.1 0.0
20/02:30pm 17.5 8.9 11.8 69 3.1 SSW 48 57 26 31 1019.2 - 0.0
20/02:00pm 17.3 8.2 11.3 68 3.3 SSW 50 61 27 33 1019.4 1019.2 0.0
20/01:30pm 17.0 8.4 11.5 70 3.0 SSW 48 59 26 32 1019.5 - 0.0
20/01:00pm 16.9 8.6 11.4 70 3.0 SSW 46 61 25 33 1019.4 1019.2 0.0
20/12:30pm 17.1 8.9 11.6 70 3.0 SSW 46 57 25 31 1019.5 - 0.0
20/12:00pm 17.0 9.7 11.5 70 3.0 SSW 41 54 22 29 1020.1 1019.9 0.0
20/11:30am 16.7 10.8 11.2 70 3.0 SSW 33 44 18 24 1020.4 - 0.0
20/11:00am 17.0 10.7 11.1 68 3.2 SSW 35 50 19 27 1020.6 1020.4 0.0
20/10:30am 16.8 10.9 10.4 66 3.4 SSW 32 43 17 23 1020.6 - 0.0
20/10:00am 16.3 10.1 9.5 64 3.5 SW 32 43 17 23 1020.7 1020.5 0.0
20/09:30am 15.8 9.3 8.8 63 3.6 SW 33 44 18 24 1020.7 - 0.0
20/09:00am 15.8 9.8 8.8 63 3.6 SW 30 44 16 24 1020.5 1020.3 0.2
20/08:30am 15.2 8.7 8.0 62 3.6 SW 32 52 17 28 1020.0 - 0.2
20/08:00am 14.9 8.3 7.7 62 3.6 SW 32 46 17 25 1019.8 1019.6 0.2
20/07:30am 14.5 7.3 7.8 64 3.3 SW 35 46 19 25 1019.4 - 0.2
20/07:00am 14.5 7.3 7.8 64 3.3 SW 35 50 19 27 1019.1 1018.9 0.2
20/06:30am 14.1 6.9 7.6 65 3.2 SW 35 46 19 25 1018.6 - 0.2
20/06:00am 14.1 7.0 7.9 66 3.1 SW 35 43 19 23 1018.3 1018.1 0.2
20/05:30am 14.0 7.8 7.8 66 3.1 SW 30 41 16 22 1018.4 - 0.2
20/05:00am 14.0 7.8 7.8 66 3.1 SW 30 43 16 23 1017.8 1017.6 0.2
20/04:30am 14.6 8.0 7.9 64 3.4 SW 32 43 17 23 1017.5 - 0.2
20/04:00am 14.7 7.1 7.7 63 3.5 SW 37 52 20 28 1016.9 1016.7 0.2
20/03:30am 14.5 6.9 7.5 63 3.5 SW 37 46 20 25 1016.7 - 0.2
20/03:00am 14.6 7.8 7.6 63 3.5 SW 33 46 18 25 1016.7 1016.5 0.2
20/02:30am 14.2 7.5 8.2 67 3.0 SW 33 44 18 24 1016.8 - 0.2
20/02:00am 13.4 7.5 9.1 75 2.2 WSW 30 33 16 18 1016.8 1016.6 0.2
20/01:30am 13.4 7.5 9.1 75 2.2 SW 30 33 16 18 1016.7 - 0.2
20/01:00am 13.9 8.4 9.1 73 2.4 SW 28 39 15 21 1016.8 1016.6 0.2
20/12:30am 13.8 8.9 9.8 77 2.1 WSW 26 32 14 17 1016.8 - 0.2
20/12:00am 14.0 9.0 9.6 75 2.3 WSW 26 33 14 18 1016.6 1016.4 0.2
 
Date/Time
EST
Temp
°C
App
Temp
°C
Dew
Point
Rel
Hum
%
Delta-T
°C
Wind Press
QNH
hPa
Press
MSL
hPa
Rain
since 9 am
mm
Dir
 
Spd
km/h
Gust
km/h
Spd
kts
Gust
kts
19/11:30pm 13.7 8.4 9.9 78 2.0 WSW 28 35 15 19 1016.5 - 0.2
19/11:00pm 13.9 8.3 10.1 78 2.0 WSW 30 35 16 19 1016.3 1016.1 0.2
19/10:30pm 14.2 9.0 10.2 77 2.1 WSW 28 35 15 19 1016.1 - 0.2
19/10:00pm 14.2 9.4 10.2 77 2.1 WSW 26 33 14 18 1016.0 1015.9 0.2
19/09:30pm 14.4 8.3 10.4 77 2.1 WSW 33 43 18 23 1015.9 - 0.2
19/09:00pm 14.1 8.7 10.9 81 1.7 WSW 30 37 16 20 1015.7 1015.6 0.2
19/08:30pm 14.3 9.4 11.3 82 1.6 WSW 28 35 15 19 1015.5 - 0.2
19/08:00pm 14.5 10.0 11.3 81 1.7 W 26 33 14 18 1015.3 1015.2 0.2
19/07:30pm 15.0 10.6 11.6 80 1.8 WSW 26 32 14 17 1015.3 - 0.2
19/07:00pm 15.7 12.5 11.9 78 2.1 W 20 26 11 14 1015.0 1014.9 0.2
19/06:30pm 16.0 12.8 12.0 77 2.2 WSW 20 26 11 14 1014.6 - 0.2
19/06:00pm 15.8 12.4 12.4 80 1.9 SW 22 32 12 17 1014.3 1014.2 0.2
19/05:30pm 16.5 12.5 11.9 74 2.5 WSW 24 32 13 17 1013.7 - 0.0
19/05:00pm 16.9 12.0 12.4 75 2.5 SSW 30 43 16 23 1012.9 1012.8 0.0
19/04:30pm 16.8 9.8 11.1 69 3.1 S 39 46 21 25 1012.4 - 0.0
19/04:22pm 18.1 11.3 10.5 61 4.1 S 37 43 20 23 1012.3 - 0.0
19/04:00pm 19.0 15.8 10.0 56 4.8 SE 17 26 9 14 1011.8 1011.6 0.0
19/03:30pm 19.6 17.8 9.5 52 5.4 E 9 13 5 7 1011.2 - 0.0
19/03:00pm 19.4 16.6 9.9 54 5.1 E 15 19 8 10 1011.0 1010.8 0.0
19/02:30pm 19.2 15.5 9.4 53 5.2 ESE 19 22 10 12 1010.9 - 0.0
19/02:00pm 19.3 15.6 9.5 53 5.2 ESE 19 22 10 12 1010.7 1010.5 0.0
19/01:30pm 20.7 17.2 7.0 41 7.0 SW 15 20 8 11 1010.8 - 0.0
19/01:00pm 20.9 16.6 7.9 43 6.8 SW 20 30 11 16 1010.9 1010.7 0.0
19/12:30pm 20.7 16.4 8.0 44 6.6 WSW 20 26 11 14 1011.0 - 0.0
19/12:00pm 20.3 15.4 7.0 42 6.8 W 22 33 12 18 1011.4 1011.2 0.0
19/11:30am 19.8 14.2 7.2 44 6.4 W 26 39 14 21 1011.6 - 0.0
19/11:00am 19.4 14.3 7.5 46 6.1 WSW 24 35 13 19 1011.9 1011.7 0.0
19/10:30am 18.7 12.7 7.2 47 5.8 WSW 28 37 15 20 1012.0 - 0.0
19/10:20am 18.2 11.7 6.7 47 5.8 WSW 30 48 16 26 1012.0 - 0.0
19/10:00am 18.3 12.3 7.1 48 5.7 W 28 37 15 20 1012.0 1011.9 0.0
19/09:30am 17.6 11.7 7.4 51 5.2 WSW 28 46 15 25 1012.0 - 0.0
19/09:00am 16.8 10.5 7.2 53 4.8 W 30 50 16 27 1012.1 1012.0 0.0
19/08:30am 16.0 11.3 7.7 58 4.2 W 22 43 12 23 1012.2 - 0.0
19/08:00am 15.5 10.4 7.5 59 4.0 WNW 24 41 13 22 1011.7 1011.5 0.0
19/07:30am 15.0 10.2 7.5 61 3.7 WNW 22 43 12 23 1011.7 - 0.0
19/07:00am 14.5 10.3 7.5 63 3.5 WNW 19 32 10 17 1011.5 1011.3 0.0
19/06:30am 14.4 10.2 7.5 63 3.4 WNW 19 32 10 17 1011.0 - 0.0
19/06:00am 14.6 8.6 7.2 61 3.7 WNW 28 43 15 23 1010.4 1010.2 0.0
19/05:30am 14.5 9.3 7.3 62 3.6 WNW 24 37 13 20 1010.1 - 0.0
19/05:00am 14.7 10.3 7.3 61 3.7 W 20 39 11 21 1009.9 1009.7 0.0
19/04:30am 14.6 10.7 7.2 61 3.6 W 17 37 9 20 1009.4 - 0.0
19/04:00am 14.8 9.6 7.4 61 3.7 WNW 24 44 13 24 1008.9 1008.7 0.0
19/03:42am 14.8 8.9 7.6 62 3.6 WNW 28 46 15 25 1008.5 - 0.0
19/03:30am 14.5 9.0 7.5 63 3.5 WNW 26 41 14 22 1008.9 - 0.0
19/03:00am 14.5 9.3 7.3 62 3.6 W 24 37 13 20 1009.2 1009.0 0.0
19/02:30am 14.6 8.7 7.6 63 3.5 WNW 28 43 15 23 1009.4 - 0.0
19/02:00am 14.2 9.5 7.9 66 3.1 WNW 22 39 12 21 1009.5 1009.3 0.0
19/01:30am 14.2 9.5 7.7 65 3.2 WNW 22 35 12 19 1009.7 - 0.0
19/01:00am 14.3 9.6 7.6 64 3.3 W 22 41 12 22 1010.0 1009.8 0.0
19/12:30am 14.4 8.5 7.7 64 3.3 WNW 28 43 15 23 1010.0 - 0.0
19/12:00am 14.5 7.8 7.5 63 3.5 WNW 32 50 17 27 1010.0 1009.8 0.0
 
Date/Time
EST
Temp
°C
App
Temp
°C
Dew
Point
Rel
Hum
%
Delta-T
°C
Wind Press
QNH
hPa
Press
MSL
hPa
Rain
since 9 am
mm
Dir
 
Spd
km/h
Gust
km/h
Spd
kts
Gust
kts
18/11:30pm 14.6 8.0 7.6 63 3.5 WNW 32 56 17 30 1010.4 - 0.0
18/11:00pm 14.5 8.6 7.5 63 3.5 WNW 28 52 15 28 1010.7 1010.5 0.0
18/10:45pm 14.6 8.7 7.4 62 3.6 WNW 28 46 15 25 1010.6 - 0.0
18/10:30pm 14.8 7.9 7.4 61 3.7 W 33 48 18 26 1010.4 - 0.0
18/10:00pm 14.7 8.4 7.5 62 3.6 WNW 30 48 16 26 1010.5 1010.3 0.0
18/09:40pm 14.8 8.1 7.4 61 3.7 W 32 52 17 28 1010.3 - 0.0
18/09:30pm 14.9 8.2 7.5 61 3.7 WNW 32 48 17 26 1010.2 - 0.0
18/09:00pm 14.9 8.6 7.5 61 3.7 WNW 30 50 16 27 1010.0 1009.8 0.0
18/08:34pm 14.8 8.9 7.4 61 3.7 WNW 28 56 15 30 1009.8 - 0.0
18/08:30pm 14.8 9.0 7.8 63 3.5 WNW 28 44 15 24 1009.8 - 0.0
18/08:17pm 14.7 8.9 8.0 64 3.4 WNW 28 46 15 25 1009.7 - 0.0
18/08:00pm 14.9 9.1 7.9 63 3.5 WNW 28 43 15 23 1009.6 1009.4 0.0
18/07:30pm 14.9 9.0 7.7 62 3.6 NW 28 48 15 26 1009.3 - 0.0
18/07:02pm 15.1 9.2 7.6 61 3.7 WNW 28 46 15 25 1008.8 - 0.0
18/07:00pm 15.0 9.5 7.5 61 3.7 WNW 26 41 14 22 1008.9 1008.7 0.0
18/06:30pm 15.3 10.8 7.1 58 4.1 NW 20 33 11 18 1008.5 - 0.0
18/06:00pm 15.4 11.0 7.4 59 4.0 WNW 20 35 11 19 1008.1 1007.9 0.0
18/05:30pm 15.9 10.7 7.4 57 4.2 NW 24 39 13 21 1007.8 - 0.0
18/05:02pm 16.7 10.9 7.9 56 4.5 WNW 28 46 15 25 1007.5 - 0.0
18/05:00pm 16.7 10.8 7.4 54 4.7 WNW 28 44 15 24 1007.6 1007.4 0.0
18/04:39pm 17.2 11.2 7.0 51 5.1 WNW 28 46 15 25 1007.4 - 0.0
18/04:30pm 17.5 11.9 7.0 50 5.3 WNW 26 50 14 27 1007.2 - 0.0
18/04:12pm 17.5 11.6 7.5 52 5.1 WNW 28 46 15 25 1006.9 - 0.0
18/04:00pm 17.2 11.3 7.5 53 4.9 NW 28 44 15 24 1006.6 1006.4 0.0
18/03:39pm 17.1 11.2 7.7 54 4.8 NW 28 46 15 25 1006.3 - 0.0
18/03:30pm 17.4 11.8 7.2 51 5.1 NW 26 50 14 27 1006.3 - 0.0
18/03:00pm 18.2 11.9 7.6 50 5.4 WNW 30 50 16 27 1006.4 1006.2 0.0
18/02:57pm 18.1 12.1 6.9 48 5.6 WNW 28 48 15 26 1006.4 - 0.0
18/02:30pm 18.6 13.4 7.1 47 5.8 NW 24 39 13 21 1006.6 - 0.0
18/02:00pm 18.7 13.3 7.8 49 5.6 WNW 26 44 14 24 1006.5 1006.3 0.0
18/01:46pm 18.0 12.2 8.0 52 5.1 WNW 28 46 15 25 1006.6 - 0.0
18/01:30pm 18.5 14.5 6.7 46 5.9 NW 17 32 9 17 1006.8 - 0.0
18/01:00pm 17.4 11.7 6.9 50 5.3 WNW 26 44 14 24 1006.8 1006.6 0.0
18/12:30pm 16.9 11.4 5.8 48 5.4 NW 24 44 13 24 1007.2 - 0.0
18/12:00pm 18.5 13.9 6.4 45 6.0 NW 20 41 11 22 1007.8 1007.6 0.0
18/11:30am 18.1 13.6 6.3 46 5.9 WNW 19 41 10 22 1008.2 - 0.0
18/11:00am 17.4 11.9 6.0 47 5.6 NW 24 54 13 29 1008.3 1008.1 0.0
18/10:48am 16.7 10.3 5.3 47 5.5 NW 28 54 15 29 1008.2 - 0.0
18/10:30am 16.4 10.5 6.0 50 5.1 NW 26 43 14 23 1008.5 - 0.0
18/10:00am 16.1 11.4 6.0 51 4.9 NNW 20 35 11 19 1008.8 1008.6 0.0
18/09:30am 14.5 9.6 5.3 54 4.4 WNW 20 35 11 19 1009.3 - 0.0
18/09:00am 14.6 9.6 4.6 51 4.7 WNW 20 41 11 22 1009.4 1009.2 0.0
18/08:30am 14.7 9.9 5.8 55 4.3 NW 20 39 11 21 1009.3 - 0.0
18/08:00am 14.7 12.4 7.5 62 3.6 NNW 9 22 5 12 1009.5 1009.3 0.0
18/07:30am 13.1 10.5 7.8 70 2.6 NW 11 17 6 9 1009.0 - 0.0
18/07:00am 12.6 10.0 7.9 73 2.3 NW 11 15 6 8 1009.2 1009.0 0.0
18/06:30am 12.1 9.0 7.2 72 2.4 NW 13 20 7 11 1008.7 - 0.0
18/06:00am 12.7 10.5 7.8 72 2.4 N 9 15 5 8 1008.4 1008.2 0.0
18/05:30am 13.4 11.2 7.8 69 2.8 N 9 17 5 9 1008.4 - 0.0
18/05:00am 13.1 10.1 7.8 70 2.6 N 13 24 7 13 1008.1 1007.9 0.0
18/04:30am 12.7 10.1 7.8 72 2.4 NNW 11 20 6 11 1008.3 - 0.0
18/04:00am 12.1 9.7 7.0 71 2.5 NW 9 15 5 8 1008.4 1008.2 0.0
18/03:30am 12.9 10.9 7.1 68 2.8 NNW 7 15 4 8 1008.2 - 0.0
18/03:00am 13.9 11.2 7.4 65 3.2 NNW 11 19 6 10 1008.4 1008.2 0.0
18/02:30am 13.6 11.5 8.2 70 2.7 NW 9 15 5 8 1008.5 - 0.0
18/02:00am 12.9 10.6 7.4 69 2.7 NW 9 13 5 7 1008.9 1008.7 0.0
18/01:30am 12.6 10.5 6.6 67 2.9 NW 7 11 4 6 1009.2 - 0.0
18/01:00am 13.3 11.1 6.4 63 3.3 N 7 15 4 8 1009.5 1009.3 0.0
18/12:30am 13.4 11.2 6.0 61 3.5 WNW 7 11 4 6 1009.8 - 0.0
18/12:00am 13.2 10.5 5.4 59 3.7 NW 9 15 5 8 1009.9 1009.7 0.0
 
Date/Time
EST
Temp
°C
App
Temp
°C
Dew
Point
Rel
Hum
%
Delta-T
°C
Wind Press
QNH
hPa
Press
MSL
hPa
Rain
since 9 am
mm
Dir
 
Spd
km/h
Gust
km/h
Spd
kts
Gust
kts
17/11:30pm 13.2 10.0 4.9 57 3.9 NW 11 19 6 10 1010.0 - 0.0
17/11:00pm 14.2 11.5 5.6 56 4.1 NW 9 15 5 8 1010.1 1009.9 0.0
17/10:30pm 14.9 12.6 5.7 54 4.4 NNW 7 13 4 7 1010.3 - 0.0
17/10:00pm 14.8 12.1 5.6 54 4.4 WNW 9 15 5 8 1010.3 1010.1 0.0
17/09:30pm 15.1 12.1 4.2 48 5.1 NW 9 19 5 10 1010.4 - 0.0
17/09:00pm 15.3 11.9 5.8 53 4.6 NW 13 20 7 11 1010.4 1010.2 0.0
17/08:30pm 15.5 11.7 3.9 46 5.4 NW 13 22 7 12 1010.3 - 0.0
17/08:00pm 15.6 10.2 4.6 48 5.2 WNW 22 33 12 18 1010.0 1009.8 0.0
17/07:30pm 16.2 11.0 3.6 43 5.8 WNW 20 30 11 16 1009.6 - 0.0
17/07:00pm 16.4 10.9 3.8 43 5.9 WNW 22 32 12 17 1008.9 1008.7 0.0

Other Formats:

Comma delimited format used in spreadsheet applications
http://www.bom.gov.au/fwo/IDN60801/IDN60801.94599.axf

JavaScript Object Notation format (JSON) in row-major order
http://www.bom.gov.au/fwo/IDN60801/IDN60801.94599.json